createdAt,value
2022-12-01T00:01:22.033Z,11.22
2022-12-01T00:03:48.958Z,11.22
2022-12-01T00:06:21.075Z,11.20
2022-12-01T00:09:11.454Z,11.21
2022-12-01T00:11:39.780Z,11.18
2022-12-01T00:14:06.876Z,11.17
2022-12-01T00:16:34.200Z,11.16
2022-12-01T00:19:01.081Z,11.15
2022-12-01T00:21:28.076Z,11.14
2022-12-01T00:23:57.707Z,11.12
2022-12-01T00:26:27.543Z,11.10
2022-12-01T00:28:57.954Z,11.09
2022-12-01T00:31:25.774Z,11.06
2022-12-01T00:33:52.880Z,11.04
2022-12-01T00:36:19.778Z,11.04
2022-12-01T00:38:47.435Z,11.03
2022-12-01T00:41:14.259Z,11.01
2022-12-01T00:43:41.061Z,11.00
2022-12-01T00:46:07.954Z,10.98
2022-12-01T00:48:34.983Z,10.99
2022-12-01T00:51:01.896Z,10.97
2022-12-01T00:53:29.069Z,10.94
2022-12-01T00:55:55.843Z,10.93
2022-12-01T00:58:24.116Z,10.90
2022-12-01T01:01:01.281Z,10.89
2022-12-01T01:03:29.958Z,10.87
2022-12-01T01:06:02.977Z,10.89
2022-12-01T01:08:29.697Z,10.88
2022-12-01T01:11:00.438Z,10.88
2022-12-01T01:13:28.320Z,10.88
2022-12-01T01:16:19.914Z,10.86
2022-12-01T01:18:47.635Z,10.84
2022-12-01T01:21:18.395Z,10.83
2022-12-01T01:23:45.993Z,10.84
2022-12-01T01:26:28.492Z,10.82
2022-12-01T01:29:02.069Z,10.82
2022-12-01T01:31:30.686Z,10.78
2022-12-01T01:33:58.931Z,10.81
2022-12-01T01:36:27.344Z,10.79
2022-12-01T01:38:55.198Z,10.80
2022-12-01T01:41:23.970Z,10.79
2022-12-01T01:44:17.475Z,10.78
2022-12-01T01:46:44.200Z,10.76
2022-12-01T01:49:14.757Z,10.75
2022-12-01T01:51:53.243Z,10.75
2022-12-01T01:54:28.002Z,10.71
2022-12-01T01:56:57.560Z,10.72
2022-12-01T01:59:37.113Z,10.71
2022-12-01T02:02:08.458Z,10.69
2022-12-01T02:04:41.641Z,10.69
2022-12-01T02:07:10.249Z,10.67
2022-12-01T02:09:37.019Z,10.65
2022-12-01T02:12:31.224Z,10.65
2022-12-01T02:15:30.693Z,10.64
2022-12-01T02:18:30.671Z,10.60
2022-12-01T02:21:35.054Z,10.60
2022-12-01T02:24:26.351Z,10.58
2022-12-01T02:27:13.617Z,10.60
2022-12-01T02:30:16.764Z,10.62
2022-12-01T02:32:54.275Z,10.61
2022-12-01T02:35:45.943Z,10.62
2022-12-01T02:38:28.613Z,10.63
2022-12-01T02:41:23.095Z,10.63
2022-12-01T02:44:19.749Z,10.62
2022-12-01T02:47:05.868Z,10.59
2022-12-01T02:49:42.352Z,10.57
2022-12-01T02:52:11.407Z,10.55
2022-12-01T02:54:39.801Z,10.54
2022-12-01T02:57:11.229Z,10.54
2022-12-01T02:59:38.450Z,10.54
2022-12-01T03:02:42.412Z,10.50
2022-12-01T03:05:35.760Z,10.48
2022-12-01T03:08:33.532Z,10.49
2022-12-01T03:11:02.853Z,10.48
2022-12-01T03:14:29.285Z,10.50
2022-12-01T03:17:05.366Z,10.50
2022-12-01T03:20:22.979Z,10.53
2022-12-01T03:23:09.538Z,10.50
2022-12-01T03:25:41.851Z,10.53
2022-12-01T03:28:21.061Z,10.55
2022-12-01T03:30:54.870Z,10.56
2022-12-01T03:33:52.206Z,10.59
2022-12-01T03:36:37.394Z,10.60
2022-12-01T03:39:14.175Z,10.58
2022-12-01T03:41:50.298Z,10.59
2022-12-01T03:44:25.136Z,10.61
2022-12-01T03:47:08.705Z,10.63
2022-12-01T03:49:37.299Z,10.63
2022-12-01T03:52:31.503Z,10.67
2022-12-01T03:55:26.010Z,10.64
2022-12-01T03:58:18.523Z,10.64
2022-12-01T04:00:49.893Z,10.66
2022-12-01T04:03:20.401Z,10.68
2022-12-01T04:05:47.132Z,10.71
2022-12-01T04:08:13.995Z,10.71
2022-12-01T04:10:40.734Z,10.69
2022-12-01T04:13:12.114Z,10.69
2022-12-01T04:15:38.940Z,10.65
2022-12-01T04:18:05.842Z,10.62
2022-12-01T04:20:32.653Z,10.62
2022-12-01T04:22:59.351Z,10.60
2022-12-01T04:25:26.173Z,10.57
2022-12-01T04:27:52.927Z,10.55
2022-12-01T04:30:19.792Z,10.55
2022-12-01T04:32:46.525Z,10.56
2022-12-01T04:35:13.422Z,10.55
2022-12-01T04:37:40.951Z,10.53
2022-12-01T04:40:08.604Z,10.53
2022-12-01T04:42:35.424Z,10.51
2022-12-01T04:45:02.236Z,10.49
2022-12-01T04:47:29.014Z,10.48
2022-12-01T04:49:55.791Z,10.46
2022-12-01T04:52:22.595Z,10.45
2022-12-01T04:54:49.267Z,10.44
2022-12-01T04:57:15.970Z,10.42
2022-12-01T04:59:42.682Z,10.45
2022-12-01T05:02:09.473Z,10.44
2022-12-01T05:04:38.635Z,10.41
2022-12-01T05:07:05.450Z,10.38
2022-12-01T05:09:32.299Z,10.37
2022-12-01T05:11:59.056Z,10.37
2022-12-01T05:14:25.837Z,10.35
2022-12-01T05:16:52.576Z,10.34
2022-12-01T05:19:37.835Z,10.32
2022-12-01T05:22:04.629Z,10.29
2022-12-01T05:24:31.379Z,10.28
2022-12-01T05:26:58.119Z,10.30
2022-12-01T05:29:24.838Z,10.29
2022-12-01T05:31:51.674Z,10.26
2022-12-01T05:34:18.501Z,10.26
2022-12-01T05:36:45.262Z,10.23
2022-12-01T05:39:12.122Z,10.23
2022-12-01T05:41:38.808Z,10.21
2022-12-01T05:44:05.736Z,10.18
2022-12-01T05:46:32.581Z,10.16
2022-12-01T05:48:59.339Z,10.12
2022-12-01T05:51:26.155Z,10.12
2022-12-01T05:53:52.998Z,10.07
2022-12-01T05:56:19.799Z,10.07
2022-12-01T05:58:46.512Z,10.04
2022-12-01T06:01:13.230Z,10.02
2022-12-01T06:03:39.950Z,10.03
2022-12-01T06:06:07.275Z,10.00
2022-12-01T06:08:34.165Z,10.48
2022-12-01T06:11:01.089Z,10.50
2022-12-01T06:13:28.042Z,10.37
2022-12-01T06:16:04.762Z,10.28
2022-12-01T06:18:35.323Z,10.23
2022-12-01T06:21:03.336Z,10.18
2022-12-01T06:23:30.703Z,10.16
2022-12-01T06:25:58.419Z,10.16
2022-12-01T06:28:25.203Z,10.14
2022-12-01T06:30:55.416Z,10.14
2022-12-01T06:33:24.840Z,10.10
2022-12-01T06:36:04.924Z,10.08
2022-12-01T06:38:35.137Z,10.01
2022-12-01T06:41:02.321Z,9.96
2022-12-01T06:43:29.574Z,9.92
2022-12-01T06:46:01.745Z,9.87
2022-12-01T06:48:30.161Z,9.83
2022-12-01T06:50:58.894Z,9.83
2022-12-01T06:53:27.385Z,9.82
2022-12-01T06:56:04.896Z,9.79
2022-12-01T06:58:32.744Z,9.79
2022-12-01T07:00:59.959Z,9.81
2022-12-01T07:03:27.473Z,9.82
2022-12-01T07:06:01.053Z,9.83
2022-12-01T07:08:30.016Z,9.79
2022-12-01T07:11:12.984Z,9.78
2022-12-01T07:13:41.736Z,9.82
2022-12-01T07:16:09.742Z,9.82
2022-12-01T07:18:37.078Z,9.82
2022-12-01T07:21:08.087Z,9.84
2022-12-01T07:23:35.764Z,9.83
2022-12-01T07:26:15.437Z,9.83
2022-12-01T07:28:43.565Z,9.84
2022-12-01T07:31:19.194Z,9.83
2022-12-01T07:33:46.276Z,9.85
2022-12-01T07:36:14.712Z,9.85
2022-12-01T07:38:41.907Z,9.88
2022-12-01T07:41:19.169Z,9.87
2022-12-01T07:43:48.005Z,9.88
2022-12-01T07:46:23.812Z,9.90
2022-12-01T07:48:52.058Z,9.90
2022-12-01T07:51:20.036Z,9.91
2022-12-01T07:53:49.931Z,9.92
2022-12-01T07:56:18.584Z,9.93
2022-12-01T07:58:45.608Z,9.92
2022-12-01T08:01:19.436Z,9.95
2022-12-01T08:03:49.532Z,9.96
2022-12-01T08:06:18.284Z,9.97
2022-12-01T08:08:45.821Z,9.97
2022-12-01T08:11:19.729Z,9.98
2022-12-01T08:13:46.572Z,9.96
2022-12-01T08:16:16.658Z,9.99
2022-12-01T08:18:44.595Z,9.98
2022-12-01T08:21:15.889Z,9.98
2022-12-01T08:23:43.437Z,10.02
2022-12-01T08:26:17.971Z,10.03
2022-12-01T08:28:45.505Z,10.06
2022-12-01T08:31:18.920Z,10.08
2022-12-01T08:33:47.198Z,10.09
2022-12-01T08:36:15.377Z,10.11
2022-12-01T08:38:47.368Z,10.10
2022-12-01T08:41:15.510Z,10.12
2022-12-01T08:44:00.668Z,10.16
2022-12-01T08:46:33.499Z,10.15
2022-12-01T08:49:01.679Z,10.17
2022-12-01T08:51:29.039Z,10.17
2022-12-01T08:53:58.100Z,10.14
2022-12-01T08:56:33.969Z,10.16
2022-12-01T08:59:01.207Z,10.16
2022-12-01T09:01:28.786Z,10.14
2022-12-01T09:04:08.855Z,10.14
2022-12-01T09:06:41.791Z,10.12
2022-12-01T09:09:14.152Z,10.12
2022-12-01T09:11:43.785Z,10.12
2022-12-01T09:14:15.420Z,10.13
2022-12-01T09:16:44.481Z,10.10
2022-12-01T09:19:13.217Z,10.10
2022-12-01T09:21:43.322Z,10.09
2022-12-01T09:24:13.093Z,10.12
2022-12-01T09:26:40.874Z,10.15
2022-12-01T09:29:12.662Z,10.17
2022-12-01T09:31:40.791Z,10.19
2022-12-01T09:34:13.582Z,10.22
2022-12-01T09:36:40.557Z,10.20
2022-12-01T09:39:11.090Z,10.23
2022-12-01T09:42:08.766Z,10.26
2022-12-01T09:44:52.624Z,10.25
2022-12-01T09:47:30.501Z,10.26
2022-12-01T09:50:15.899Z,10.27
2022-12-01T09:52:51.289Z,10.31
2022-12-01T09:55:21.873Z,10.37
2022-12-01T09:57:52.697Z,10.40
2022-12-01T10:00:27.253Z,10.45
2022-12-01T10:03:12.267Z,10.47
2022-12-01T10:06:25.203Z,10.49
2022-12-01T10:08:50.256Z,10.48
2022-12-01T10:11:32.018Z,10.48
2022-12-01T10:14:00.207Z,10.47
2022-12-01T10:17:09.492Z,10.48
2022-12-01T10:19:54.743Z,10.46
2022-12-01T10:23:08.253Z,10.46
2022-12-01T10:26:09.253Z,10.38
2022-12-01T10:28:48.059Z,10.36
2022-12-01T10:31:25.188Z,10.33
2022-12-01T10:34:14.280Z,10.32
2022-12-01T10:36:41.295Z,10.28
2022-12-01T10:39:24.573Z,10.29
2022-12-01T10:41:51.749Z,10.28
2022-12-01T10:44:19.263Z,10.27
2022-12-01T10:46:54.874Z,10.26
2022-12-01T10:49:39.567Z,10.23
2022-12-01T10:52:08.258Z,10.22
2022-12-01T10:54:40.888Z,10.20
2022-12-01T10:57:16.753Z,10.20
2022-12-01T11:00:01.209Z,10.19
2022-12-01T11:02:31.393Z,10.17
2022-12-01T11:05:18.694Z,10.16
2022-12-01T11:07:47.664Z,10.14
2022-12-01T11:10:26.954Z,10.14
2022-12-01T11:12:59.176Z,10.12
2022-12-01T11:15:37.356Z,10.14
2022-12-01T11:18:27.433Z,10.13
2022-12-01T11:21:08.591Z,10.12
2022-12-01T11:23:46.503Z,10.11
2022-12-01T11:26:23.774Z,10.13
2022-12-01T11:28:58.994Z,10.13
2022-12-01T11:31:49.523Z,10.14
2022-12-01T11:34:25.716Z,10.14
2022-12-01T11:36:57.938Z,10.17
2022-12-01T11:39:33.610Z,10.18
2022-12-01T11:42:14.120Z,10.18
2022-12-01T11:44:52.896Z,10.20
2022-12-01T11:47:25.088Z,10.19
2022-12-01T11:50:02.232Z,10.21
2022-12-01T11:52:38.573Z,10.23
2022-12-01T11:55:11.217Z,10.25
2022-12-01T11:57:43.360Z,10.25
2022-12-01T12:00:21.696Z,10.24
2022-12-01T12:03:18.567Z,10.25
2022-12-01T12:06:39.366Z,10.24
2022-12-01T12:09:35.248Z,10.20
2022-12-01T12:12:42.284Z,10.19
2022-12-01T12:15:58.518Z,10.19
2022-12-01T12:18:43.945Z,10.16
2022-12-01T12:21:38.562Z,10.18
2022-12-01T12:24:08.140Z,10.18
2022-12-01T12:27:16.858Z,10.21
2022-12-01T12:30:20.021Z,10.22
2022-12-01T12:33:08.977Z,10.24
2022-12-01T12:35:44.257Z,10.29
2022-12-01T12:38:45.029Z,10.33
2022-12-01T12:41:54.104Z,10.34
2022-12-01T12:44:50.302Z,10.34
2022-12-01T12:47:40.668Z,10.34
2022-12-01T12:50:42.390Z,10.37
2022-12-01T12:53:21.546Z,10.40
2022-12-01T12:55:57.867Z,10.45
2022-12-01T12:58:36.399Z,10.47
2022-12-01T13:01:22.889Z,10.48
2022-12-01T13:04:25.088Z,10.46
2022-12-01T13:07:02.867Z,10.42
2022-12-01T13:10:00.695Z,10.40
2022-12-01T13:12:38.936Z,10.37
2022-12-01T13:15:21.665Z,10.37
2022-12-01T13:18:04.327Z,10.37
2022-12-01T13:20:33.750Z,10.37
2022-12-01T13:23:02.686Z,10.40
2022-12-01T13:25:40.854Z,10.41
2022-12-01T13:28:22.449Z,10.42
2022-12-01T13:30:59.769Z,10.42
2022-12-01T13:33:27.033Z,10.41
2022-12-01T13:36:21.270Z,10.41
2022-12-01T13:38:43.114Z,10.41
2022-12-01T13:41:14.753Z,10.40
2022-12-01T13:44:07.531Z,10.41
2022-12-01T13:46:37.123Z,10.42
2022-12-01T13:49:04.733Z,10.43
2022-12-01T13:52:17.447Z,10.45
2022-12-01T13:55:09.249Z,10.42
2022-12-01T13:57:43.913Z,10.40
2022-12-01T14:00:32.400Z,10.40
2022-12-01T14:03:19.159Z,10.40
2022-12-01T14:06:05.429Z,10.39
2022-12-01T14:08:48.155Z,10.35
2022-12-01T14:11:26.448Z,10.31
2022-12-01T14:14:12.145Z,10.27
2022-12-01T14:16:58.571Z,10.24
2022-12-01T14:19:38.289Z,10.24
2022-12-01T14:22:07.742Z,10.23
2022-12-01T14:24:41.567Z,10.22
2022-12-01T14:27:11.759Z,10.25
2022-12-01T14:29:43.169Z,10.23
2022-12-01T14:32:09.819Z,10.25
2022-12-01T14:34:38.936Z,10.24
2022-12-01T14:37:21.015Z,10.22
2022-12-01T14:40:24.120Z,10.20
2022-12-01T14:43:15.612Z,10.21
2022-12-01T14:46:09.039Z,10.21
2022-12-01T14:48:44.548Z,10.18
2022-12-01T14:51:32.186Z,10.18
2022-12-01T14:54:04.061Z,10.18
2022-12-01T14:56:34.043Z,10.16
2022-12-01T14:59:15.230Z,10.16
2022-12-01T15:01:42.119Z,10.14
2022-12-01T15:04:08.997Z,10.14
2022-12-01T15:06:37.779Z,10.16
2022-12-01T15:12:08.635Z,10.11
2022-12-01T15:14:48.125Z,10.09
2022-12-01T15:17:37.029Z,10.09
2022-12-01T15:20:05.452Z,10.06
2022-12-01T15:22:34.205Z,10.09
2022-12-01T15:25:14.388Z,10.07
2022-12-01T15:27:43.426Z,10.08
2022-12-01T15:30:15.252Z,10.07
2022-12-01T15:32:45.833Z,10.08
2022-12-01T15:35:22.693Z,10.09
2022-12-01T15:37:50.763Z,10.09
2022-12-01T15:43:22.992Z,10.08
2022-12-01T15:46:00.358Z,10.08
2022-12-01T15:48:31.826Z,10.09
2022-12-01T15:51:13.309Z,10.09
2022-12-01T15:53:48.032Z,10.10
2022-12-01T15:56:15.165Z,10.09
2022-12-01T15:58:48.076Z,10.09
2022-12-01T16:01:18.903Z,10.27
2022-12-01T16:04:21.246Z,10.34
2022-12-01T16:06:56.429Z,10.25
2022-12-01T16:09:34.605Z,10.20
2022-12-01T16:12:19.282Z,10.14
2022-12-01T16:15:10.159Z,10.11
2022-12-01T16:17:44.819Z,10.07
2022-12-01T16:20:40.717Z,10.03
2022-12-01T16:23:22.377Z,9.99
2022-12-01T16:25:49.317Z,9.98
2022-12-01T16:28:24.531Z,9.98
2022-12-01T16:30:52.847Z,9.96
2022-12-01T16:33:24.949Z,9.95
2022-12-01T16:35:52.981Z,9.95
2022-12-01T16:38:23.605Z,9.95
2022-12-01T16:40:57.198Z,9.97
2022-12-01T16:43:26.748Z,9.98
2022-12-01T16:46:04.284Z,10.01
2022-12-01T16:48:31.902Z,10.04
2022-12-01T16:51:04.368Z,10.06
2022-12-01T16:53:31.543Z,10.08
2022-12-01T16:56:01.764Z,10.08
2022-12-01T16:58:28.709Z,10.09
2022-12-01T17:00:55.575Z,10.10
2022-12-01T17:03:28.443Z,10.10
2022-12-01T17:05:55.641Z,10.08
2022-12-01T17:08:23.103Z,10.09
2022-12-01T17:10:51.696Z,10.09
2022-12-01T17:13:23.202Z,10.09
2022-12-01T17:15:53.930Z,10.07
2022-12-01T17:18:23.008Z,10.07
2022-12-01T17:21:11.258Z,10.05
2022-12-01T17:23:38.714Z,10.01
2022-12-01T17:26:18.984Z,10.00
2022-12-01T17:28:46.327Z,10.00
2022-12-01T17:31:13.854Z,9.98
2022-12-01T17:33:41.134Z,9.98
2022-12-01T17:36:13.892Z,9.97
2022-12-01T17:38:45.369Z,9.95
2022-12-01T17:41:21.715Z,9.93
2022-12-01T17:43:48.927Z,9.93
2022-12-01T17:46:16.065Z,9.94
2022-12-01T17:48:46.182Z,9.91
2022-12-01T17:51:14.583Z,9.90
2022-12-01T17:53:41.829Z,9.89
2022-12-01T17:56:12.759Z,9.88
2022-12-01T17:58:40.539Z,9.88
2022-12-01T18:01:16.112Z,9.87
2022-12-01T18:03:43.547Z,9.85
2022-12-01T18:06:10.507Z,9.86
2022-12-01T18:08:38.540Z,9.87
2022-12-01T18:11:10.065Z,9.86
2022-12-01T18:13:39.528Z,9.85
2022-12-01T18:16:17.944Z,9.84
2022-12-01T18:18:44.966Z,9.83
2022-12-01T18:21:15.552Z,9.82
2022-12-01T18:23:49.019Z,9.82
2022-12-01T18:26:16.460Z,9.82
2022-12-01T18:28:44.197Z,9.82
2022-12-01T18:31:15.355Z,9.82
2022-12-01T18:33:45.000Z,9.83
2022-12-01T18:36:24.296Z,9.83
2022-12-01T18:38:53.439Z,9.82
2022-12-01T18:41:20.809Z,9.81
2022-12-01T18:43:47.577Z,9.82
2022-12-01T18:46:17.233Z,9.82
2022-12-01T18:48:54.089Z,9.82
2022-12-01T18:51:24.535Z,9.79
2022-12-01T18:54:01.962Z,9.77
2022-12-01T18:56:30.449Z,9.74
2022-12-01T18:59:01.391Z,9.74
2022-12-01T19:01:36.121Z,9.73
2022-12-01T19:04:04.785Z,9.74
2022-12-01T19:06:41.275Z,9.73
2022-12-01T19:09:10.900Z,9.68
2022-12-01T19:11:48.010Z,9.69
2022-12-01T19:14:19.590Z,9.69
2022-12-01T19:16:46.959Z,9.67
2022-12-01T19:19:16.623Z,9.68
2022-12-01T19:21:51.872Z,9.68
2022-12-01T19:24:23.248Z,9.66
2022-12-01T19:26:51.670Z,9.67
2022-12-01T19:29:21.319Z,9.68
2022-12-01T19:31:48.500Z,9.68
2022-12-01T19:34:22.424Z,9.70
2022-12-01T19:36:52.083Z,9.69
2022-12-01T19:39:19.546Z,9.72
2022-12-01T19:41:46.377Z,9.72
2022-12-01T19:44:13.731Z,9.73
2022-12-01T19:46:40.812Z,9.70
2022-12-01T19:49:07.962Z,9.70
2022-12-01T19:51:38.530Z,9.69
2022-12-01T19:54:18.556Z,9.67
2022-12-01T19:56:47.112Z,9.66
2022-12-01T19:59:15.029Z,9.64
2022-12-01T20:01:42.418Z,9.66
2022-12-01T20:04:09.502Z,9.62
2022-12-01T20:06:37.852Z,9.60
2022-12-01T20:09:07.889Z,9.57
2022-12-01T20:11:35.688Z,9.55
2022-12-01T20:14:05.927Z,9.54
2022-12-01T20:16:33.420Z,9.53
2022-12-01T20:19:03.279Z,9.55
2022-12-01T20:21:42.254Z,9.56
2022-12-01T20:24:15.258Z,9.57
2022-12-01T20:26:54.064Z,9.58
2022-12-01T20:29:29.047Z,9.58
2022-12-01T20:31:59.108Z,9.58
2022-12-01T20:34:35.328Z,9.58
2022-12-01T20:37:05.028Z,9.57
2022-12-01T20:39:34.750Z,9.55
2022-12-01T20:42:01.780Z,9.53
2022-12-01T20:44:28.689Z,9.52
2022-12-01T20:46:55.625Z,9.53
2022-12-01T20:49:22.608Z,9.50
2022-12-01T20:51:50.071Z,9.48
2022-12-01T20:54:27.729Z,9.49
2022-12-01T20:56:54.932Z,9.48
2022-12-01T20:59:21.769Z,9.49
2022-12-01T21:01:48.669Z,9.50
2022-12-01T21:04:15.546Z,9.51
2022-12-01T21:06:42.478Z,9.54
2022-12-01T21:09:09.532Z,9.56
2022-12-01T21:12:06.509Z,9.57
2022-12-01T21:14:59.637Z,9.55
2022-12-01T21:17:38.260Z,9.53
2022-12-01T21:20:30.055Z,9.55
2022-12-01T21:23:14.913Z,9.54
2022-12-01T21:25:43.595Z,9.54
2022-12-01T21:28:24.575Z,9.55
2022-12-01T21:31:01.983Z,9.54
2022-12-01T21:33:34.411Z,9.49
2022-12-01T21:36:20.002Z,9.45
2022-12-01T21:38:53.270Z,9.41
2022-12-01T21:41:29.611Z,9.37
2022-12-01T21:44:07.549Z,9.35
2022-12-01T21:46:35.226Z,9.32
2022-12-01T21:49:02.434Z,9.32
2022-12-01T21:51:30.839Z,9.30
2022-12-01T21:53:58.037Z,9.29
2022-12-01T21:56:31.574Z,9.27
2022-12-01T21:59:11.269Z,9.25
2022-12-01T22:01:40.341Z,9.23
2022-12-01T22:04:21.693Z,9.22
2022-12-01T22:06:53.150Z,9.21
2022-12-01T22:09:27.647Z,9.19
2022-12-01T22:12:24.367Z,9.12
2022-12-01T22:14:51.523Z,9.07
2022-12-01T22:17:20.851Z,9.02
2022-12-01T22:20:00.901Z,9.00
2022-12-01T22:22:30.780Z,8.93
2022-12-01T22:25:12.911Z,8.90
2022-12-01T22:27:40.158Z,8.85
2022-12-01T22:30:07.356Z,8.81
2022-12-01T22:33:09.564Z,8.79
2022-12-01T22:35:46.014Z,8.73
2022-12-01T22:38:29.381Z,8.70
2022-12-01T22:41:03.035Z,8.67
2022-12-01T22:43:40.607Z,8.66
2022-12-01T22:46:17.474Z,8.67
2022-12-01T22:48:48.980Z,8.67
2022-12-01T22:51:22.352Z,8.68
2022-12-01T22:53:53.527Z,8.69
2022-12-01T22:56:26.025Z,8.68
2022-12-01T22:58:53.191Z,8.68
2022-12-01T23:01:31.773Z,8.66
2022-12-01T23:04:27.602Z,8.65
2022-12-01T23:07:41.375Z,8.62
2022-12-01T23:10:19.177Z,8.58
2022-12-01T23:12:50.013Z,8.57
2022-12-01T23:15:38.878Z,8.50
2022-12-01T23:18:18.491Z,8.47
2022-12-01T23:20:51.888Z,8.43
2022-12-01T23:23:27.879Z,8.40
2022-12-01T23:25:55.508Z,8.40
2022-12-01T23:28:22.583Z,8.41
2022-12-01T23:30:54.890Z,8.41
2022-12-01T23:33:25.351Z,8.43
2022-12-01T23:36:16.799Z,8.45
2022-12-01T23:38:50.647Z,8.44
2022-12-01T23:41:32.909Z,8.42
2022-12-01T23:44:11.785Z,8.39
2022-12-01T23:46:38.743Z,8.39
2022-12-01T23:49:14.630Z,8.38
2022-12-01T23:51:50.687Z,8.40
2022-12-01T23:54:26.841Z,8.42
2022-12-01T23:57:19.430Z,8.38
2022-12-01T23:59:46.453Z,8.34
